sensor_id;sensor_type;location;lat;lon;timestamp;P1;durP1;ratioP1;P2;durP2;ratioP2
21270;SDS011;10795;50.796;3.860;2022-09-19T00:01:36;3.70;;;1.50;;
21270;SDS011;10795;50.796;3.860;2022-09-19T00:04:06;10.55;;;1.80;;
21270;SDS011;10795;50.796;3.860;2022-09-19T00:06:35;9.35;;;1.45;;
21270;SDS011;10795;50.796;3.860;2022-09-19T00:09:03;7.00;;;1.40;;
21270;SDS011;10795;50.796;3.860;2022-09-19T00:11:31;5.13;;;1.33;;
21270;SDS011;10795;50.796;3.860;2022-09-19T00:13:57;9.73;;;1.55;;
21270;SDS011;10795;50.796;3.860;2022-09-19T00:16:26;6.15;;;1.58;;
21270;SDS011;10795;50.796;3.860;2022-09-19T00:18:56;6.13;;;1.73;;
21270;SDS011;10795;50.796;3.860;2022-09-19T00:21:28;7.18;;;1.55;;
21270;SDS011;10795;50.796;3.860;2022-09-19T00:23:56;5.95;;;1.70;;
21270;SDS011;10795;50.796;3.860;2022-09-19T00:26:41;5.38;;;1.60;;
21270;SDS011;10795;50.796;3.860;2022-09-19T00:29:08;7.40;;;1.65;;
21270;SDS011;10795;50.796;3.860;2022-09-19T00:31:35;6.30;;;1.75;;
21270;SDS011;10795;50.796;3.860;2022-09-19T00:34:01;11.02;;;1.77;;
21270;SDS011;10795;50.796;3.860;2022-09-19T00:36:35;7.43;;;1.60;;
21270;SDS011;10795;50.796;3.860;2022-09-19T00:39:03;10.07;;;1.70;;
21270;SDS011;10795;50.796;3.860;2022-09-19T00:41:30;7.07;;;1.38;;
21270;SDS011;10795;50.796;3.860;2022-09-19T00:43:58;6.25;;;1.40;;
21270;SDS011;10795;50.796;3.860;2022-09-19T00:46:29;6.50;;;1.45;;
21270;SDS011;10795;50.796;3.860;2022-09-19T00:51:32;7.10;;;1.40;;
21270;SDS011;10795;50.796;3.860;2022-09-19T00:54:03;8.63;;;1.85;;
21270;SDS011;10795;50.796;3.860;2022-09-19T00:56:36;7.75;;;1.88;;
21270;SDS011;10795;50.796;3.860;2022-09-19T00:59:09;7.97;;;1.67;;
21270;SDS011;10795;50.796;3.860;2022-09-19T01:01:35;5.53;;;1.30;;
21270;SDS011;10795;50.796;3.860;2022-09-19T01:04:13;8.05;;;1.40;;
21270;SDS011;10795;50.796;3.860;2022-09-19T01:12:29;9.32;;;1.83;;
21270;SDS011;10795;50.796;3.860;2022-09-19T01:18:07;7.68;;;1.35;;
21270;SDS011;10795;50.796;3.860;2022-09-19T01:23:27;5.45;;;1.48;;
21270;SDS011;10795;50.796;3.860;2022-09-19T01:31:25;9.35;;;1.63;;
21270;SDS011;10795;50.796;3.860;2022-09-19T01:34:00;8.45;;;1.90;;
21270;SDS011;10795;50.796;3.860;2022-09-19T01:36:33;7.22;;;1.70;;
21270;SDS011;10795;50.796;3.860;2022-09-19T01:39:04;9.38;;;1.85;;
21270;SDS011;10795;50.796;3.860;2022-09-19T01:41:46;7.10;;;1.52;;
21270;SDS011;10795;50.796;3.860;2022-09-19T01:44:17;7.68;;;1.30;;
21270;SDS011;10795;50.796;3.860;2022-09-19T01:46:52;5.97;;;1.48;;
21270;SDS011;10795;50.796;3.860;2022-09-19T01:52:02;9.23;;;2.05;;
21270;SDS011;10795;50.796;3.860;2022-09-19T01:54:47;6.20;;;1.40;;
21270;SDS011;10795;50.796;3.860;2022-09-19T01:58:05;4.60;;;1.30;;
21270;SDS011;10795;50.796;3.860;2022-09-19T02:00:39;5.10;;;1.00;;
21270;SDS011;10795;50.796;3.860;2022-09-19T02:06:00;5.93;;;1.30;;
21270;SDS011;10795;50.796;3.860;2022-09-19T02:11:29;5.32;;;1.17;;
21270;SDS011;10795;50.796;3.860;2022-09-19T02:13:57;5.60;;;1.50;;
21270;SDS011;10795;50.796;3.860;2022-09-19T02:18:58;5.88;;;1.17;;
21270;SDS011;10795;50.796;3.860;2022-09-19T02:21:38;9.80;;;1.45;;
21270;SDS011;10795;50.796;3.860;2022-09-19T02:24:11;4.40;;;1.50;;
21270;SDS011;10795;50.796;3.860;2022-09-19T02:26:40;6.63;;;1.63;;
21270;SDS011;10795;50.796;3.860;2022-09-19T02:29:10;7.60;;;1.63;;
21270;SDS011;10795;50.796;3.860;2022-09-19T02:31:39;6.63;;;1.52;;
21270;SDS011;10795;50.796;3.860;2022-09-19T02:34:06;8.25;;;1.73;;
21270;SDS011;10795;50.796;3.860;2022-09-19T02:39:32;8.02;;;1.50;;
21270;SDS011;10795;50.796;3.860;2022-09-19T02:42:36;9.25;;;1.55;;
21270;SDS011;10795;50.796;3.860;2022-09-19T02:45:15;6.22;;;1.60;;
21270;SDS011;10795;50.796;3.860;2022-09-19T02:50:41;3.53;;;1.33;;
21270;SDS011;10795;50.796;3.860;2022-09-19T02:53:15;6.15;;;1.38;;
21270;SDS011;10795;50.796;3.860;2022-09-19T02:55:47;2.15;;;0.88;;
21270;SDS011;10795;50.796;3.860;2022-09-19T02:58:17;4.13;;;1.20;;
21270;SDS011;10795;50.796;3.860;2022-09-19T03:00:48;8.23;;;1.70;;
21270;SDS011;10795;50.796;3.860;2022-09-19T03:03:42;5.80;;;1.85;;
21270;SDS011;10795;50.796;3.860;2022-09-19T03:06:35;9.48;;;1.33;;
21270;SDS011;10795;50.796;3.860;2022-09-19T03:09:04;7.25;;;1.60;;
21270;SDS011;10795;50.796;3.860;2022-09-19T03:11:32;8.43;;;1.48;;
21270;SDS011;10795;50.796;3.860;2022-09-19T03:14:03;10.23;;;1.33;;
21270;SDS011;10795;50.796;3.860;2022-09-19T03:16:33;6.65;;;1.30;;
21270;SDS011;10795;50.796;3.860;2022-09-19T03:19:04;8.57;;;1.65;;
21270;SDS011;10795;50.796;3.860;2022-09-19T03:21:31;6.47;;;1.13;;
21270;SDS011;10795;50.796;3.860;2022-09-19T03:23:57;8.60;;;1.77;;
21270;SDS011;10795;50.796;3.860;2022-09-19T03:26:28;7.90;;;1.50;;
21270;SDS011;10795;50.796;3.860;2022-09-19T03:28:59;8.15;;;1.55;;
21270;SDS011;10795;50.796;3.860;2022-09-19T03:31:33;5.97;;;1.20;;
21270;SDS011;10795;50.796;3.860;2022-09-19T03:34:03;4.07;;;0.80;;
21270;SDS011;10795;50.796;3.860;2022-09-19T03:36:28;8.43;;;1.33;;
21270;SDS011;10795;50.796;3.860;2022-09-19T03:38:56;6.78;;;1.42;;
21270;SDS011;10795;50.796;3.860;2022-09-19T03:41:31;3.97;;;1.17;;
21270;SDS011;10795;50.796;3.860;2022-09-19T03:43:57;5.60;;;1.60;;
21270;SDS011;10795;50.796;3.860;2022-09-19T03:46:27;7.18;;;1.80;;
21270;SDS011;10795;50.796;3.860;2022-09-19T03:48:56;6.72;;;1.52;;
21270;SDS011;10795;50.796;3.860;2022-09-19T03:51:23;12.73;;;1.77;;
21270;SDS011;10795;50.796;3.860;2022-09-19T03:53:50;7.90;;;1.30;;
21270;SDS011;10795;50.796;3.860;2022-09-19T03:56:19;8.07;;;1.50;;
21270;SDS011;10795;50.796;3.860;2022-09-19T03:58:46;5.05;;;1.45;;
21270;SDS011;10795;50.796;3.860;2022-09-19T04:01:13;6.78;;;1.45;;
21270;SDS011;10795;50.796;3.860;2022-09-19T04:03:41;3.72;;;1.25;;
21270;SDS011;10795;50.796;3.860;2022-09-19T04:06:08;7.90;;;1.75;;
21270;SDS011;10795;50.796;3.860;2022-09-19T04:08:35;4.00;;;1.23;;
21270;SDS011;10795;50.796;3.860;2022-09-19T04:11:01;8.65;;;1.73;;
21270;SDS011;10795;50.796;3.860;2022-09-19T04:13:28;6.95;;;1.30;;
21270;SDS011;10795;50.796;3.860;2022-09-19T04:16:02;5.70;;;1.27;;
21270;SDS011;10795;50.796;3.860;2022-09-19T04:18:28;3.72;;;1.10;;
21270;SDS011;10795;50.796;3.860;2022-09-19T04:20:54;8.55;;;1.33;;
21270;SDS011;10795;50.796;3.860;2022-09-19T04:23:39;8.02;;;1.30;;
21270;SDS011;10795;50.796;3.860;2022-09-19T04:26:26;7.30;;;1.48;;
21270;SDS011;10795;50.796;3.860;2022-09-19T04:28:52;2.58;;;1.13;;
21270;SDS011;10795;50.796;3.860;2022-09-19T04:31:18;5.95;;;1.40;;
21270;SDS011;10795;50.796;3.860;2022-09-19T04:33:47;6.88;;;1.65;;
21270;SDS011;10795;50.796;3.860;2022-09-19T04:36:13;8.80;;;1.40;;
21270;SDS011;10795;50.796;3.860;2022-09-19T04:38:41;6.90;;;1.60;;
21270;SDS011;10795;50.796;3.860;2022-09-19T04:41:14;5.55;;;1.40;;
21270;SDS011;10795;50.796;3.860;2022-09-19T04:43:41;8.07;;;1.27;;
21270;SDS011;10795;50.796;3.860;2022-09-19T04:46:20;7.63;;;1.52;;
21270;SDS011;10795;50.796;3.860;2022-09-19T04:48:48;8.10;;;1.80;;
21270;SDS011;10795;50.796;3.860;2022-09-19T04:51:15;9.18;;;1.63;;
21270;SDS011;10795;50.796;3.860;2022-09-19T04:53:41;4.30;;;1.30;;
21270;SDS011;10795;50.796;3.860;2022-09-19T04:56:08;8.32;;;1.73;;
21270;SDS011;10795;50.796;3.860;2022-09-19T04:58:38;7.03;;;1.40;;
21270;SDS011;10795;50.796;3.860;2022-09-19T05:03:34;7.10;;;1.67;;
21270;SDS011;10795;50.796;3.860;2022-09-19T05:06:01;12.55;;;1.92;;
21270;SDS011;10795;50.796;3.860;2022-09-19T05:08:31;9.18;;;1.40;;
21270;SDS011;10795;50.796;3.860;2022-09-19T05:11:10;6.40;;;1.52;;
21270;SDS011;10795;50.796;3.860;2022-09-19T05:13:37;6.40;;;1.80;;
21270;SDS011;10795;50.796;3.860;2022-09-19T05:16:05;6.70;;;1.30;;
21270;SDS011;10795;50.796;3.860;2022-09-19T05:18:34;5.97;;;1.90;;
21270;SDS011;10795;50.796;3.860;2022-09-19T05:21:13;8.90;;;1.45;;
21270;SDS011;10795;50.796;3.860;2022-09-19T05:23:40;6.70;;;1.38;;
21270;SDS011;10795;50.796;3.860;2022-09-19T05:26:10;5.25;;;1.20;;
21270;SDS011;10795;50.796;3.860;2022-09-19T05:28:42;3.25;;;0.95;;
21270;SDS011;10795;50.796;3.860;2022-09-19T05:31:13;5.13;;;1.40;;
21270;SDS011;10795;50.796;3.860;2022-09-19T05:33:45;6.75;;;1.48;;
21270;SDS011;10795;50.796;3.860;2022-09-19T05:36:16;8.27;;;1.48;;
21270;SDS011;10795;50.796;3.860;2022-09-19T05:39:08;9.88;;;1.50;;
21270;SDS011;10795;50.796;3.860;2022-09-19T05:41:53;10.65;;;1.75;;
21270;SDS011;10795;50.796;3.860;2022-09-19T05:44:20;8.18;;;1.90;;
21270;SDS011;10795;50.796;3.860;2022-09-19T05:46:59;10.52;;;2.00;;
21270;SDS011;10795;50.796;3.860;2022-09-19T05:49:26;8.77;;;1.40;;
21270;SDS011;10795;50.796;3.860;2022-09-19T05:51:52;7.68;;;2.30;;
21270;SDS011;10795;50.796;3.860;2022-09-19T05:54:25;7.18;;;1.30;;
21270;SDS011;10795;50.796;3.860;2022-09-19T05:57:26;6.05;;;0.93;;
21270;SDS011;10795;50.796;3.860;2022-09-19T05:59:52;10.02;;;1.67;;
21270;SDS011;10795;50.796;3.860;2022-09-19T06:02:19;6.70;;;1.52;;
21270;SDS011;10795;50.796;3.860;2022-09-19T06:04:53;4.97;;;1.60;;
21270;SDS011;10795;50.796;3.860;2022-09-19T06:07:19;8.73;;;1.60;;
21270;SDS011;10795;50.796;3.860;2022-09-19T06:09:46;7.28;;;1.88;;
21270;SDS011;10795;50.796;3.860;2022-09-19T06:12:14;11.85;;;1.88;;
21270;SDS011;10795;50.796;3.860;2022-09-19T06:14:40;7.28;;;1.88;;
21270;SDS011;10795;50.796;3.860;2022-09-19T06:17:08;9.13;;;1.67;;
21270;SDS011;10795;50.796;3.860;2022-09-19T06:19:58;9.90;;;1.80;;
21270;SDS011;10795;50.796;3.860;2022-09-19T06:22:42;8.70;;;2.00;;
21270;SDS011;10795;50.796;3.860;2022-09-19T06:25:08;6.20;;;1.63;;
21270;SDS011;10795;50.796;3.860;2022-09-19T06:27:34;15.40;;;2.22;;
21270;SDS011;10795;50.796;3.860;2022-09-19T06:30:03;11.40;;;2.20;;
21270;SDS011;10795;50.796;3.860;2022-09-19T06:32:52;16.83;;;1.90;;
21270;SDS011;10795;50.796;3.860;2022-09-19T06:35:22;7.88;;;2.10;;
21270;SDS011;10795;50.796;3.860;2022-09-19T06:37:56;9.70;;;1.80;;
21270;SDS011;10795;50.796;3.860;2022-09-19T06:40:26;7.55;;;1.70;;
21270;SDS011;10795;50.796;3.860;2022-09-19T06:43:31;7.82;;;1.10;;
21270;SDS011;10795;50.796;3.860;2022-09-19T06:46:28;7.45;;;2.25;;
21270;SDS011;10795;50.796;3.860;2022-09-19T06:49:15;8.07;;;2.13;;
21270;SDS011;10795;50.796;3.860;2022-09-19T06:52:04;7.65;;;2.60;;
21270;SDS011;10795;50.796;3.860;2022-09-19T06:54:30;4.50;;;2.25;;
21270;SDS011;10795;50.796;3.860;2022-09-19T06:56:56;11.20;;;2.40;;
21270;SDS011;10795;50.796;3.860;2022-09-19T06:59:22;9.05;;;1.92;;
21270;SDS011;10795;50.796;3.860;2022-09-19T07:01:48;7.43;;;2.20;;
21270;SDS011;10795;50.796;3.860;2022-09-19T07:04:15;10.50;;;2.58;;
21270;SDS011;10795;50.796;3.860;2022-09-19T07:07:01;8.57;;;1.95;;
21270;SDS011;10795;50.796;3.860;2022-09-19T07:09:28;2.33;;;0.93;;
21270;SDS011;10795;50.796;3.860;2022-09-19T07:11:54;6.53;;;1.65;;
21270;SDS011;10795;50.796;3.860;2022-09-19T07:14:22;11.50;;;1.98;;
21270;SDS011;10795;50.796;3.860;2022-09-19T07:16:49;8.90;;;1.38;;
21270;SDS011;10795;50.796;3.860;2022-09-19T07:19:15;1.25;;;0.68;;
21270;SDS011;10795;50.796;3.860;2022-09-19T07:22:14;12.32;;;1.88;;
21270;SDS011;10795;50.796;3.860;2022-09-19T07:25:02;1.00;;;0.50;;
21270;SDS011;10795;50.796;3.860;2022-09-19T07:27:32;8.80;;;1.58;;
21270;SDS011;10795;50.796;3.860;2022-09-19T07:29:58;4.38;;;1.50;;
21270;SDS011;10795;50.796;3.860;2022-09-19T07:32:24;4.93;;;1.02;;
21270;SDS011;10795;50.796;3.860;2022-09-19T07:34:53;4.28;;;1.15;;
21270;SDS011;10795;50.796;3.860;2022-09-19T07:37:19;5.47;;;1.45;;
21270;SDS011;10795;50.796;3.860;2022-09-19T07:39:52;5.07;;;1.38;;
21270;SDS011;10795;50.796;3.860;2022-09-19T07:42:31;6.85;;;1.38;;
21270;SDS011;10795;50.796;3.860;2022-09-19T07:45:13;4.75;;;1.10;;
21270;SDS011;10795;50.796;3.860;2022-09-19T07:47:57;2.90;;;0.95;;
21270;SDS011;10795;50.796;3.860;2022-09-19T07:50:42;3.28;;;0.90;;
21270;SDS011;10795;50.796;3.860;2022-09-19T07:53:18;3.42;;;1.05;;
21270;SDS011;10795;50.796;3.860;2022-09-19T07:55:50;5.57;;;2.00;;
21270;SDS011;10795;50.796;3.860;2022-09-19T07:58:18;6.65;;;0.95;;
21270;SDS011;10795;50.796;3.860;2022-09-19T08:00:50;5.82;;;1.63;;
21270;SDS011;10795;50.796;3.860;2022-09-19T08:03:37;3.72;;;1.35;;
21270;SDS011;10795;50.796;3.860;2022-09-19T08:06:02;3.80;;;1.10;;
21270;SDS011;10795;50.796;3.860;2022-09-19T08:08:30;3.75;;;1.25;;
21270;SDS011;10795;50.796;3.860;2022-09-19T08:10:59;8.77;;;1.67;;
21270;SDS011;10795;50.796;3.860;2022-09-19T08:13:26;4.68;;;1.17;;
21270;SDS011;10795;50.796;3.860;2022-09-19T08:15:54;4.38;;;1.42;;
21270;SDS011;10795;50.796;3.860;2022-09-19T08:18:22;6.35;;;1.42;;
21270;SDS011;10795;50.796;3.860;2022-09-19T08:20:52;3.70;;;1.33;;
21270;SDS011;10795;50.796;3.860;2022-09-19T08:23:19;9.05;;;1.67;;
21270;SDS011;10795;50.796;3.860;2022-09-19T08:25:47;6.05;;;1.60;;
21270;SDS011;10795;50.796;3.860;2022-09-19T08:30:45;7.53;;;2.00;;
21270;SDS011;10795;50.796;3.860;2022-09-19T08:33:12;6.88;;;1.73;;
21270;SDS011;10795;50.796;3.860;2022-09-19T08:35:40;9.32;;;2.03;;
21270;SDS011;10795;50.796;3.860;2022-09-19T08:38:20;4.72;;;1.58;;
21270;SDS011;10795;50.796;3.860;2022-09-19T08:40:50;8.23;;;2.20;;
21270;SDS011;10795;50.796;3.860;2022-09-19T08:46:19;6.97;;;2.00;;
21270;SDS011;10795;50.796;3.860;2022-09-19T08:48:52;6.00;;;2.00;;
21270;SDS011;10795;50.796;3.860;2022-09-19T08:51:46;7.72;;;2.20;;
21270;SDS011;10795;50.796;3.860;2022-09-19T08:54:38;4.63;;;1.67;;
21270;SDS011;10795;50.796;3.860;2022-09-19T08:57:24;5.15;;;1.58;;
21270;SDS011;10795;50.796;3.860;2022-09-19T09:00:06;6.13;;;2.00;;
21270;SDS011;10795;50.796;3.860;2022-09-19T09:05:20;7.05;;;2.08;;
21270;SDS011;10795;50.796;3.860;2022-09-19T09:08:08;5.82;;;1.25;;
21270;SDS011;10795;50.796;3.860;2022-09-19T09:17:26;7.47;;;2.28;;
21270;SDS011;10795;50.796;3.860;2022-09-19T09:20:15;5.22;;;1.30;;
21270;SDS011;10795;50.796;3.860;2022-09-19T09:22:47;8.48;;;2.00;;
21270;SDS011;10795;50.796;3.860;2022-09-19T09:25:29;8.90;;;1.83;;
21270;SDS011;10795;50.796;3.860;2022-09-19T09:28:15;7.80;;;1.63;;
21270;SDS011;10795;50.796;3.860;2022-09-19T09:31:33;5.38;;;1.40;;
21270;SDS011;10795;50.796;3.860;2022-09-19T09:34:22;9.18;;;1.73;;
21270;SDS011;10795;50.796;3.860;2022-09-19T09:36:59;9.47;;;1.80;;
21270;SDS011;10795;50.796;3.860;2022-09-19T09:39:45;6.60;;;1.92;;
21270;SDS011;10795;50.796;3.860;2022-09-19T09:45:17;9.68;;;1.55;;
21270;SDS011;10795;50.796;3.860;2022-09-19T09:48:23;5.28;;;1.10;;
21270;SDS011;10795;50.796;3.860;2022-09-19T10:00:06;5.13;;;1.00;;
21270;SDS011;10795;50.796;3.860;2022-09-19T10:06:09;11.38;;;1.63;;
21270;SDS011;10795;50.796;3.860;2022-09-19T10:09:01;10.45;;;1.75;;
21270;SDS011;10795;50.796;3.860;2022-09-19T10:11:41;5.68;;;1.20;;
21270;SDS011;10795;50.796;3.860;2022-09-19T10:14:21;4.85;;;1.23;;
21270;SDS011;10795;50.796;3.860;2022-09-19T10:16:59;9.23;;;1.58;;
21270;SDS011;10795;50.796;3.860;2022-09-19T10:19:41;4.10;;;0.82;;
21270;SDS011;10795;50.796;3.860;2022-09-19T10:22:11;3.10;;;1.00;;
21270;SDS011;10795;50.796;3.860;2022-09-19T10:24:48;7.13;;;1.20;;
21270;SDS011;10795;50.796;3.860;2022-09-19T10:30:13;6.55;;;1.10;;
21270;SDS011;10795;50.796;3.860;2022-09-19T10:32:43;3.10;;;0.82;;
21270;SDS011;10795;50.796;3.860;2022-09-19T10:35:38;10.88;;;2.00;;
21270;SDS011;10795;50.796;3.860;2022-09-19T10:40:50;5.25;;;1.08;;
21270;SDS011;10795;50.796;3.860;2022-09-19T10:43:22;8.35;;;1.88;;
21270;SDS011;10795;50.796;3.860;2022-09-19T10:46:00;9.52;;;1.70;;
21270;SDS011;10795;50.796;3.860;2022-09-19T10:48:39;7.75;;;2.10;;
21270;SDS011;10795;50.796;3.860;2022-09-19T10:51:15;8.02;;;1.50;;
21270;SDS011;10795;50.796;3.860;2022-09-19T10:53:46;5.18;;;1.30;;
21270;SDS011;10795;50.796;3.860;2022-09-19T10:56:18;4.88;;;0.98;;
21270;SDS011;10795;50.796;3.860;2022-09-19T10:59:35;6.35;;;1.30;;
21270;SDS011;10795;50.796;3.860;2022-09-19T11:02:25;9.38;;;2.15;;
21270;SDS011;10795;50.796;3.860;2022-09-19T11:04:53;7.30;;;1.45;;
21270;SDS011;10795;50.796;3.860;2022-09-19T11:07:26;4.30;;;1.35;;
21270;SDS011;10795;50.796;3.860;2022-09-19T11:09:57;10.65;;;1.70;;
21270;SDS011;10795;50.796;3.860;2022-09-19T11:12:34;3.28;;;0.95;;
21270;SDS011;10795;50.796;3.860;2022-09-19T11:15:00;5.78;;;0.98;;
21270;SDS011;10795;50.796;3.860;2022-09-19T11:17:42;9.80;;;1.20;;
21270;SDS011;10795;50.796;3.860;2022-09-19T11:20:40;2.75;;;0.68;;
21270;SDS011;10795;50.796;3.860;2022-09-19T11:26:04;8.65;;;1.00;;
21270;SDS011;10795;50.796;3.860;2022-09-19T11:28:59;4.82;;;1.02;;
21270;SDS011;10795;50.796;3.860;2022-09-19T11:31:35;5.30;;;1.02;;
21270;SDS011;10795;50.796;3.860;2022-09-19T11:40:15;6.93;;;1.13;;
21270;SDS011;10795;50.796;3.860;2022-09-19T11:45:58;1.55;;;0.60;;
21270;SDS011;10795;50.796;3.860;2022-09-19T11:51:04;5.65;;;1.02;;
21270;SDS011;10795;50.796;3.860;2022-09-19T11:54:11;5.32;;;1.17;;
21270;SDS011;10795;50.796;3.860;2022-09-19T12:09:13;3.00;;;0.90;;
21270;SDS011;10795;50.796;3.860;2022-09-19T12:11:49;4.45;;;0.90;;
21270;SDS011;10795;50.796;3.860;2022-09-19T12:14:23;8.63;;;0.90;;
21270;SDS011;10795;50.796;3.860;2022-09-19T12:17:16;4.82;;;0.70;;
21270;SDS011;10795;50.796;3.860;2022-09-19T12:19:58;3.72;;;0.82;;
21270;SDS011;10795;50.796;3.860;2022-09-19T12:22:50;4.60;;;0.70;;
21270;SDS011;10795;50.796;3.860;2022-09-19T12:25:57;7.30;;;0.90;;
21270;SDS011;10795;50.796;3.860;2022-09-19T12:28:32;8.20;;;1.35;;
21270;SDS011;10795;50.796;3.860;2022-09-19T12:31:01;5.75;;;0.85;;
21270;SDS011;10795;50.796;3.860;2022-09-19T12:36:57;4.05;;;1.13;;
21270;SDS011;10795;50.796;3.860;2022-09-19T12:42:23;4.97;;;0.60;;
21270;SDS011;10795;50.796;3.860;2022-09-19T12:50:38;3.17;;;0.65;;
21270;SDS011;10795;50.796;3.860;2022-09-19T12:53:09;3.28;;;0.50;;
21270;SDS011;10795;50.796;3.860;2022-09-19T12:55:51;2.63;;;0.63;;
21270;SDS011;10795;50.796;3.860;2022-09-19T12:58:33;4.88;;;0.70;;
21270;SDS011;10795;50.796;3.860;2022-09-19T13:01:26;6.35;;;0.90;;
21270;SDS011;10795;50.796;3.860;2022-09-19T13:04:23;4.35;;;1.08;;
21270;SDS011;10795;50.796;3.860;2022-09-19T13:07:24;4.45;;;0.75;;
21270;SDS011;10795;50.796;3.860;2022-09-19T13:16:10;4.53;;;0.68;;
21270;SDS011;10795;50.796;3.860;2022-09-19T13:18:44;6.43;;;0.80;;
21270;SDS011;10795;50.796;3.860;2022-09-19T13:21:34;3.03;;;0.70;;
21270;SDS011;10795;50.796;3.860;2022-09-19T13:24:03;3.33;;;0.60;;
21270;SDS011;10795;50.796;3.860;2022-09-19T13:26:32;6.05;;;0.82;;
21270;SDS011;10795;50.796;3.860;2022-09-19T13:29:02;6.68;;;0.60;;
21270;SDS011;10795;50.796;3.860;2022-09-19T13:34:40;4.03;;;0.50;;
21270;SDS011;10795;50.796;3.860;2022-09-19T13:50:53;3.78;;;0.65;;
21270;SDS011;10795;50.796;3.860;2022-09-19T13:53:34;3.35;;;0.60;;
21270;SDS011;10795;50.796;3.860;2022-09-19T14:02:17;6.45;;;1.08;;
21270;SDS011;10795;50.796;3.860;2022-09-19T14:07:41;9.38;;;0.90;;
21270;SDS011;10795;50.796;3.860;2022-09-19T14:23:34;5.97;;;1.27;;
21270;SDS011;10795;50.796;3.860;2022-09-19T14:26:19;2.95;;;0.60;;
21270;SDS011;10795;50.796;3.860;2022-09-19T14:29:19;5.10;;;0.93;;
21270;SDS011;10795;50.796;3.860;2022-09-19T14:37:28;6.03;;;1.00;;
21270;SDS011;10795;50.796;3.860;2022-09-19T14:48:09;4.18;;;0.60;;
21270;SDS011;10795;50.796;3.860;2022-09-19T14:50:48;2.08;;;0.40;;
21270;SDS011;10795;50.796;3.860;2022-09-19T14:53:21;4.88;;;0.85;;
21270;SDS011;10795;50.796;3.860;2022-09-19T14:55:58;5.10;;;1.00;;
21270;SDS011;10795;50.796;3.860;2022-09-19T14:58:27;4.05;;;0.50;;
21270;SDS011;10795;50.796;3.860;2022-09-19T15:01:10;4.45;;;0.60;;
21270;SDS011;10795;50.796;3.860;2022-09-19T15:04:09;7.32;;;1.27;;
21270;SDS011;10795;50.796;3.860;2022-09-19T15:06:43;5.13;;;0.73;;
21270;SDS011;10795;50.796;3.860;2022-09-19T15:09:26;1.42;;;0.50;;
21270;SDS011;10795;50.796;3.860;2022-09-19T15:11:54;6.20;;;0.75;;
21270;SDS011;10795;50.796;3.860;2022-09-19T15:14:22;2.30;;;0.50;;
21270;SDS011;10795;50.796;3.860;2022-09-19T15:19:39;5.25;;;0.82;;
21270;SDS011;10795;50.796;3.860;2022-09-19T15:27:48;4.38;;;0.50;;
21270;SDS011;10795;50.796;3.860;2022-09-19T15:30:22;2.90;;;0.57;;
21270;SDS011;10795;50.796;3.860;2022-09-19T15:32:55;1.63;;;0.50;;
21270;SDS011;10795;50.796;3.860;2022-09-19T15:35:27;3.63;;;0.60;;
21270;SDS011;10795;50.796;3.860;2022-09-19T15:37:59;6.32;;;0.85;;
21270;SDS011;10795;50.796;3.860;2022-09-19T15:40:30;7.70;;;0.60;;
21270;SDS011;10795;50.796;3.860;2022-09-19T15:42:58;0.95;;;0.45;;
21270;SDS011;10795;50.796;3.860;2022-09-19T15:47:58;3.67;;;0.60;;
21270;SDS011;10795;50.796;3.860;2022-09-19T15:50:27;5.47;;;0.60;;
21270;SDS011;10795;50.796;3.860;2022-09-19T15:52:56;1.95;;;0.50;;
21270;SDS011;10795;50.796;3.860;2022-09-19T15:55:24;2.63;;;0.90;;
21270;SDS011;10795;50.796;3.860;2022-09-19T15:57:55;4.70;;;0.80;;
21270;SDS011;10795;50.796;3.860;2022-09-19T16:00:23;3.53;;;0.70;;
21270;SDS011;10795;50.796;3.860;2022-09-19T16:02:53;5.45;;;0.80;;
21270;SDS011;10795;50.796;3.860;2022-09-19T16:05:26;7.03;;;0.50;;
21270;SDS011;10795;50.796;3.860;2022-09-19T16:07:53;5.30;;;0.70;;
21270;SDS011;10795;50.796;3.860;2022-09-19T16:10:40;2.95;;;0.68;;
21270;SDS011;10795;50.796;3.860;2022-09-19T16:15:58;4.20;;;0.52;;
21270;SDS011;10795;50.796;3.860;2022-09-19T16:18:24;3.92;;;0.50;;
21270;SDS011;10795;50.796;3.860;2022-09-19T16:20:55;2.35;;;0.57;;
21270;SDS011;10795;50.796;3.860;2022-09-19T16:23:26;2.78;;;0.50;;
21270;SDS011;10795;50.796;3.860;2022-09-19T16:26:00;2.58;;;0.40;;
21270;SDS011;10795;50.796;3.860;2022-09-19T16:28:27;2.25;;;0.60;;
21270;SDS011;10795;50.796;3.860;2022-09-19T16:33:51;4.20;;;0.40;;
21270;SDS011;10795;50.796;3.860;2022-09-19T16:36:27;2.50;;;0.45;;
21270;SDS011;10795;50.796;3.860;2022-09-19T16:41:26;2.75;;;0.70;;
21270;SDS011;10795;50.796;3.860;2022-09-19T16:46:41;2.50;;;0.50;;
21270;SDS011;10795;50.796;3.860;2022-09-19T16:49:06;4.93;;;0.50;;
21270;SDS011;10795;50.796;3.860;2022-09-19T16:51:32;8.10;;;0.65;;
21270;SDS011;10795;50.796;3.860;2022-09-19T16:53:58;8.68;;;1.13;;
21270;SDS011;10795;50.796;3.860;2022-09-19T16:56:25;5.32;;;0.60;;
21270;SDS011;10795;50.796;3.860;2022-09-19T16:58:51;3.15;;;0.65;;
21270;SDS011;10795;50.796;3.860;2022-09-19T17:01:16;3.92;;;0.57;;
21270;SDS011;10795;50.796;3.860;2022-09-19T17:03:42;3.58;;;0.65;;
21270;SDS011;10795;50.796;3.860;2022-09-19T17:06:09;1.73;;;0.70;;
21270;SDS011;10795;50.796;3.860;2022-09-19T17:08:38;4.80;;;0.70;;
21270;SDS011;10795;50.796;3.860;2022-09-19T17:11:04;2.38;;;0.60;;
21270;SDS011;10795;50.796;3.860;2022-09-19T17:13:30;1.88;;;0.40;;
21270;SDS011;10795;50.796;3.860;2022-09-19T17:15:57;2.65;;;0.50;;
21270;SDS011;10795;50.796;3.860;2022-09-19T17:18:30;3.67;;;0.90;;
21270;SDS011;10795;50.796;3.860;2022-09-19T17:20:57;4.43;;;0.65;;
21270;SDS011;10795;50.796;3.860;2022-09-19T17:23:24;2.78;;;1.13;;
21270;SDS011;10795;50.796;3.860;2022-09-19T17:25:53;3.80;;;0.68;;
21270;SDS011;10795;50.796;3.860;2022-09-19T17:28:21;7.65;;;0.90;;
21270;SDS011;10795;50.796;3.860;2022-09-19T17:30:52;3.88;;;0.73;;
21270;SDS011;10795;50.796;3.860;2022-09-19T17:33:19;5.32;;;0.80;;
21270;SDS011;10795;50.796;3.860;2022-09-19T17:35:47;4.10;;;0.98;;
21270;SDS011;10795;50.796;3.860;2022-09-19T17:38:13;3.15;;;0.73;;
21270;SDS011;10795;50.796;3.860;2022-09-19T17:40:43;5.30;;;0.82;;
21270;SDS011;10795;50.796;3.860;2022-09-19T17:43:13;4.10;;;0.57;;
21270;SDS011;10795;50.796;3.860;2022-09-19T17:45:44;6.72;;;1.00;;
21270;SDS011;10795;50.796;3.860;2022-09-19T17:48:12;3.22;;;0.57;;
21270;SDS011;10795;50.796;3.860;2022-09-19T17:50:39;4.25;;;0.68;;
21270;SDS011;10795;50.796;3.860;2022-09-19T17:53:06;3.88;;;0.60;;
21270;SDS011;10795;50.796;3.860;2022-09-19T17:55:33;3.28;;;0.75;;
21270;SDS011;10795;50.796;3.860;2022-09-19T17:57:59;5.88;;;0.70;;
21270;SDS011;10795;50.796;3.860;2022-09-19T18:00:25;2.90;;;1.02;;
21270;SDS011;10795;50.796;3.860;2022-09-19T18:02:51;5.40;;;0.82;;
21270;SDS011;10795;50.796;3.860;2022-09-19T18:05:35;4.95;;;0.70;;
21270;SDS011;10795;50.796;3.860;2022-09-19T18:08:01;3.45;;;1.23;;
21270;SDS011;10795;50.796;3.860;2022-09-19T18:10:28;4.75;;;0.70;;
21270;SDS011;10795;50.796;3.860;2022-09-19T18:12:56;4.05;;;0.90;;
21270;SDS011;10795;50.796;3.860;2022-09-19T18:15:27;3.92;;;0.90;;
21270;SDS011;10795;50.796;3.860;2022-09-19T18:17:55;5.93;;;1.15;;
21270;SDS011;10795;50.796;3.860;2022-09-19T18:20:21;7.30;;;1.27;;
21270;SDS011;10795;50.796;3.860;2022-09-19T18:22:48;5.38;;;0.63;;
21270;SDS011;10795;50.796;3.860;2022-09-19T18:25:15;6.07;;;0.82;;
21270;SDS011;10795;50.796;3.860;2022-09-19T18:27:42;4.15;;;1.02;;
21270;SDS011;10795;50.796;3.860;2022-09-19T18:30:12;4.10;;;1.00;;
21270;SDS011;10795;50.796;3.860;2022-09-19T18:32:43;5.20;;;1.20;;
21270;SDS011;10795;50.796;3.860;2022-09-19T18:37:37;2.88;;;0.82;;
21270;SDS011;10795;50.796;3.860;2022-09-19T18:40:04;3.53;;;1.02;;
21270;SDS011;10795;50.796;3.860;2022-09-19T18:42:31;6.30;;;0.98;;
21270;SDS011;10795;50.796;3.860;2022-09-19T18:44:56;5.47;;;1.85;;